Time;durP1;ratioP1;P1;durP2;ratioP2;P2;SDS_P1;SDS_P2;PMS_P1;PMS_P2;Temp;Humidity;BMP_temperature;BMP_pressure;BME280_temperature;BME280_humidity;BME280_pressure;Samples;Min_cycle;Max_cycle;Signal;HPM_P1;HPM_P2
2021/03/05 00:00:12;;;;;;;52.75;32.55;;;;;;;4.80;68.29;99961.44;1707492;82;21190;-42
2021/03/05 00:02:41;;;;;;;44.93;27.77;;;;;;;4.74;68.29;99960.77;1706478;82;21151;-42
2021/03/05 00:05:10;;;;;;;46.42;28.17;;;;;;;4.69;68.43;99969.36;1700061;82;21146;-45
2021/03/05 00:07:40;;;;;;;45.67;28.98;;;;;;;4.66;68.45;99962.89;1698561;82;21157;-43
2021/03/05 00:10:10;;;;;;;42.43;27.20;;;;;;;4.64;68.50;99959.91;1701808;82;21621;-43
2021/03/05 00:12:37;;;;;;;44.23;28.05;;;;;;;4.61;68.58;99960.02;1705754;82;21118;-43
2021/03/05 00:15:07;;;;;;;48.52;28.45;;;;;;;4.58;68.63;99964.12;1698324;82;21557;-44
2021/03/05 00:17:35;;;;;;;40.00;26.23;;;;;;;4.60;68.67;99963.59;1667974;84;21169;-41
2021/03/05 00:20:09;;;;;;;39.10;25.32;;;;;;;4.59;68.66;99960.10;1662571;84;21401;-41
2021/03/05 00:22:36;;;;;;;39.60;26.93;;;;;;;4.63;68.60;99960.35;1668906;84;21210;-40
2021/03/05 00:25:06;;;;;;;44.73;26.80;;;;;;;4.69;68.54;99960.58;1665774;84;21145;-40
2021/03/05 00:27:33;;;;;;;44.45;28.45;;;;;;;4.74;68.41;99953.31;1666957;84;21193;-41
2021/03/05 00:30:01;;;;;;;43.52;27.22;;;;;;;4.81;68.33;99956.06;1668058;84;21158;-42
2021/03/05 00:32:29;;;;;;;44.38;25.23;;;;;;;4.90;68.12;99950.86;1667352;84;21177;-41
2021/03/05 00:34:57;;;;;;;40.67;25.43;;;;;;;4.96;67.89;99952.79;1672825;84;21644;-41
2021/03/05 00:37:25;;;;;;;43.17;25.85;;;;;;;5.00;67.78;99966.72;1666336;84;21537;-42
2021/03/05 00:39:52;;;;;;;43.45;26.15;;;;;;;5.03;67.66;99961.75;1666059;84;21611;-41
2021/03/05 00:42:20;;;;;;;35.15;20.90;;;;;;;5.08;67.46;99965.91;1668294;84;21169;-45
2021/03/05 00:44:48;;;;;;;38.85;23.83;;;;;;;5.11;66.40;99963.59;1664929;84;21158;-42
2021/03/05 00:47:15;;;;;;;25.95;16.05;;;;;;;5.08;65.66;99958.45;1662755;84;21197;-43
2021/03/05 00:49:43;;;;;;;22.37;15.28;;;;;;;5.04;64.29;99968.75;1665777;84;21188;-44
2021/03/05 00:52:11;;;;;;;23.07;13.88;;;;;;;4.99;63.02;99963.22;1664636;84;21189;-42
2021/03/05 00:54:39;;;;;;;23.45;14.28;;;;;;;4.95;61.79;99966.91;1667014;84;21198;-42
2021/03/05 00:57:07;;;;;;;23.85;14.03;;;;;;;4.92;61.54;99968.84;1663125;84;21193;-43
2021/03/05 00:59:34;;;;;;;21.68;13.93;;;;;;;4.90;61.29;99967.57;1639777;85;21173;-43
2021/03/05 01:02:02;;;;;;;17.92;12.05;;;;;;;4.92;61.38;99967.52;1662011;84;22240;-42
2021/03/05 01:04:30;;;;;;;25.15;13.88;;;;;;;4.99;61.42;99969.83;1664514;84;21558;-41
2021/03/05 01:06:58;;;;;;;23.22;13.45;;;;;;;5.07;61.19;99972.60;1666883;84;21190;-40
2021/03/05 01:09:26;;;;;;;21.60;13.48;;;;;;;5.08;61.04;99968.55;1699571;82;21286;-43
2021/03/05 01:11:54;;;;;;;20.85;12.10;;;;;;;5.05;60.95;99964.73;1705679;82;21142;-42
2021/03/05 01:14:21;;;;;;;22.10;13.83;;;;;;;5.06;60.95;99964.25;1702264;82;21166;-42
2021/03/05 01:16:49;;;;;;;20.10;13.78;;;;;;;5.04;60.83;99960.81;1702884;82;21203;-45
2021/03/05 01:19:17;;;;;;;23.47;13.72;;;;;;;4.97;60.89;99957.60;1704227;82;21598;-41
2021/03/05 01:21:44;;;;;;;21.35;13.88;;;;;;;4.91;60.81;99958.73;1704451;82;21157;-45
2021/03/05 01:24:12;;;;;;;21.17;12.88;;;;;;;4.83;60.67;99953.38;1702342;82;21150;-45
2021/03/05 01:26:41;;;;;;;19.52;11.88;;;;;;;4.73;60.14;99956.39;1703476;82;21146;-51
2021/03/05 01:29:09;;;;;;;17.65;11.40;;;;;;;4.61;60.21;99961.34;1703755;82;21284;-43
2021/03/05 01:31:36;;;;;;;17.87;10.40;;;;;;;4.52;60.27;99962.59;1700419;82;21114;-43
2021/03/05 01:34:06;;;;;;;16.07;9.95;;;;;;;4.45;60.40;99961.98;1703843;82;21178;-46
2021/03/05 01:36:35;;;;;;;17.00;10.55;;;;;;;4.45;60.61;99963.77;1704373;82;21165;-44
2021/03/05 01:39:04;;;;;;;12.93;8.78;;;;;;;4.45;60.36;99965.95;1705241;82;21158;-44
2021/03/05 01:41:33;;;;;;;16.37;9.85;;;;;;;4.45;60.13;99961.98;1702856;82;21130;-45
2021/03/05 01:44:01;;;;;;;16.27;9.58;;;;;;;4.42;60.12;99964.75;1698357;82;21144;-42
2021/03/05 01:46:28;;;;;;;15.63;9.33;;;;;;;4.38;60.12;99964.94;1706586;82;21142;-41
2021/03/05 01:48:57;;;;;;;16.97;9.08;;;;;;;4.37;60.19;99967.20;1706172;82;21162;-45
2021/03/05 01:51:28;;;;;;;15.70;9.35;;;;;;;4.35;60.05;99965.92;1700447;82;21186;-41
2021/03/05 01:53:56;;;;;;;;;;;;;;;4.35;60.05;99958.01;1700535;82;21320;-41
2021/03/05 01:56:42;;;;;;;14.23;8.63;;;;;;;4.33;59.83;99963.80;1696360;82;20168;-40
2021/03/05 01:59:12;;;;;;;15.43;8.65;;;;;;;4.30;59.87;99963.94;1705900;82;21142;-41
2021/03/05 02:01:39;;;;;;;14.83;9.03;;;;;;;4.24;60.12;99979.56;1701498;82;21161;-44
2021/03/05 02:04:13;;;;;;;13.75;8.38;;;;;;;4.20;60.46;99983.23;1700321;82;21190;-43
2021/03/05 02:06:42;;;;;;;13.90;8.83;;;;;;;4.18;60.75;99982.91;1699203;82;21122;-43
2021/03/05 02:09:09;;;;;;;13.85;8.80;;;;;;;4.21;60.53;99990.26;1706557;82;21166;-43
2021/03/05 02:11:37;;;;;;;14.03;8.73;;;;;;;4.21;60.38;99990.26;1705260;82;21178;-42
2021/03/05 02:14:07;;;;;;;14.53;8.85;;;;;;;4.18;60.52;99992.99;1705778;82;21157;-41
2021/03/05 02:17:04;;;;;;;13.45;9.23;;;;;;;4.20;60.42;99981.92;1701604;82;21162;-44
2021/03/05 02:20:21;;;;;;;15.35;8.75;;;;;;;4.21;60.52;99986.30;1698837;82;21161;-44
2021/03/05 02:23:05;;;;;;;13.98;8.45;;;;;;;4.22;60.30;99991.97;1704657;82;21158;-43
2021/03/05 02:25:51;;;;;;;15.00;9.58;;;;;;;4.27;60.13;100004.52;1701761;82;21190;-42
2021/03/05 02:28:53;;;;;;;13.68;8.60;;;;;;;4.27;60.04;100010.27;1696189;82;21145;-40
2021/03/05 02:31:42;;;;;;;15.13;9.20;;;;;;;4.28;60.03;100011.53;1701974;82;21138;-40
2021/03/05 02:34:27;;;;;;;15.00;9.35;;;;;;;4.26;59.95;100011.20;1700746;82;21153;-43
2021/03/05 02:37:11;;;;;;;15.45;9.20;;;;;;;4.26;60.03;100017.80;1704494;82;21155;-43
2021/03/05 02:40:08;;;;;;;15.13;8.55;;;;;;;4.24;60.09;100014.35;1698878;82;21299;-44
2021/03/05 02:42:49;;;;;;;13.50;9.50;;;;;;;4.22;60.19;100021.00;1697582;82;21159;-40
2021/03/05 02:45:21;;;;;;;12.90;9.05;;;;;;;4.20;60.28;100024.63;1697229;82;21150;-43
2021/03/05 02:47:59;;;;;;;14.33;9.33;;;;;;;4.17;60.18;100021.64;1679956;82;21300;-41
2021/03/05 02:50:27;;;;;;;15.80;9.05;;;;;;;4.14;60.34;100017.81;1686829;84;21198;-41
2021/03/05 02:52:58;;;;;;;13.20;8.53;;;;;;;4.13;60.53;100027.95;1697985;82;21116;-44
2021/03/05 02:55:26;;;;;;;16.83;9.93;;;;;;;4.14;60.57;100028.83;1698608;82;21138;-44
2021/03/05 02:57:56;;;;;;;12.80;8.13;;;;;;;4.12;60.67;100033.69;1703697;82;21123;-43
2021/03/05 03:00:24;;;;;;;13.57;9.37;;;;;;;4.11;60.91;100037.73;1704794;82;21183;-42
2021/03/05 03:02:53;;;;;;;14.38;9.00;;;;;;;4.10;61.12;100041.27;1704009;82;21173;-42
2021/03/05 03:05:21;;;;;;;13.83;8.78;;;;;;;4.08;61.26;100040.03;1702959;82;21177;-41
2021/03/05 03:07:49;;;;;;;13.62;8.10;;;;;;;4.11;61.32;100043.01;1698959;82;21159;-41
2021/03/05 03:10:19;;;;;;;15.00;9.13;;;;;;;4.16;61.37;100049.41;1703570;82;21150;-44
2021/03/05 03:12:50;;;;;;;12.82;8.80;;;;;;;4.16;61.31;100053.36;1702112;82;21561;-44
2021/03/05 03:15:18;;;;;;;16.70;9.38;;;;;;;4.10;61.46;100054.47;1684745;82;21207;-44
2021/03/05 03:17:46;;;;;;;13.80;8.93;;;;;;;4.09;61.61;100050.97;1699856;82;21142;-42
2021/03/05 03:20:17;;;;;;;14.20;9.40;;;;;;;4.14;61.59;100049.95;1708871;82;21142;-45
2021/03/05 03:22:45;;;;;;;15.75;9.70;;;;;;;4.16;61.59;100054.68;1701990;82;21134;-45
2021/03/05 03:25:13;;;;;;;17.50;9.33;;;;;;;4.15;61.66;100054.30;1698449;82;21590;-42
2021/03/05 03:27:42;;;;;;;18.32;10.03;;;;;;;4.08;61.87;100062.46;1705699;82;21150;-42
2021/03/05 03:30:12;;;;;;;15.48;10.03;;;;;;;4.02;62.09;100051.27;1708590;82;21157;-42
2021/03/05 03:32:40;;;;;;;15.98;10.00;;;;;;;4.01;62.24;100062.28;1704354;82;22026;-42
2021/03/05 03:35:10;;;;;;;19.27;11.15;;;;;;;4.01;62.43;100065.39;1701560;82;21320;-46
2021/03/05 03:37:37;;;;;;;16.65;11.05;;;;;;;3.98;62.53;100064.16;1704518;82;21650;-47
2021/03/05 03:40:15;;;;;;;20.10;12.20;;;;;;;3.93;62.68;100067.44;1700265;82;21141;-48
2021/03/05 03:42:44;;;;;;;17.87;10.32;;;;;;;3.85;62.84;100066.41;1700585;82;21124;-42
2021/03/05 03:45:12;;;;;;;20.05;11.53;;;;;;;3.82;63.04;100071.80;1705113;82;21150;-44
2021/03/05 03:47:40;;;;;;;19.02;11.35;;;;;;;3.81;63.24;100078.01;1669185;84;22027;-43
2021/03/05 03:50:13;;;;;;;18.52;11.88;;;;;;;3.75;63.57;100084.81;1665716;84;21174;-44
2021/03/05 03:52:53;;;;;;;18.82;10.90;;;;;;;3.67;63.92;100082.45;1665572;84;21194;-43
2021/03/05 03:55:21;;;;;;;16.25;11.38;;;;;;;3.61;64.15;100077.42;1663787;84;21609;-43
2021/03/05 03:57:52;;;;;;;18.17;10.80;;;;;;;3.57;64.41;100073.16;1667334;84;21146;-41
2021/03/05 04:00:20;;;;;;;17.32;10.93;;;;;;;3.55;64.57;100079.80;1667530;84;21158;-44
2021/03/05 04:02:51;;;;;;;17.82;10.25;;;;;;;3.53;64.71;100079.01;1670608;84;21202;-42
2021/03/05 04:05:26;;;;;;;19.23;10.78;;;;;;;3.53;64.80;100080.77;1680080;84;21188;-45
2021/03/05 04:07:57;;;;;;;16.95;11.03;;;;;;;3.55;64.88;100086.38;1676399;84;21151;-42
2021/03/05 04:10:24;;;;;;;17.10;10.82;;;;;;;3.58;64.87;100082.77;1676069;84;21193;-39
2021/03/05 04:12:52;;;;;;;18.98;10.55;;;;;;;3.60;64.80;100087.11;1658922;85;21164;-41
2021/03/05 04:15:20;;;;;;;14.95;10.38;;;;;;;3.63;64.92;100092.27;1630146;85;21653;-41
2021/03/05 04:17:47;;;;;;;19.37;10.38;;;;;;;3.69;64.77;100088.54;1682162;84;21152;-42
2021/03/05 04:20:17;;;;;;;18.30;10.05;;;;;;;3.76;64.66;100090.05;1672597;84;21196;-44
2021/03/05 04:22:45;;;;;;;19.57;11.35;;;;;;;3.84;64.61;100087.13;1666366;84;21589;-43
2021/03/05 04:25:15;;;;;;;19.77;10.78;;;;;;;3.93;64.59;100088.11;1666064;84;21729;-41
2021/03/05 04:27:44;;;;;;;17.00;11.18;;;;;;;4.01;64.38;100084.72;1668069;84;21146;-43
2021/03/05 04:30:13;;;;;;;16.95;9.65;;;;;;;4.08;64.26;100086.64;1662937;84;21319;-43
2021/03/05 04:32:41;;;;;;;20.37;11.40;;;;;;;4.12;63.95;100082.98;1664915;84;21202;-45
2021/03/05 04:35:12;;;;;;;17.90;11.80;;;;;;;4.17;63.65;100089.41;1666443;84;21300;-44
2021/03/05 04:37:40;;;;;;;17.55;10.13;;;;;;;4.21;63.44;100089.67;1669019;84;21630;-44
2021/03/05 04:40:10;;;;;;;17.23;10.98;;;;;;;4.23;63.28;100091.80;1668965;84;21128;-41
2021/03/05 04:42:38;;;;;;;19.37;13.08;;;;;;;4.23;63.27;100091.80;1677488;84;21161;-43
2021/03/05 04:45:07;;;;;;;17.67;10.55;;;;;;;4.24;63.14;100094.39;1668036;84;21173;-45
2021/03/05 04:47:34;;;;;;;22.10;11.40;;;;;;;4.22;63.02;100097.55;1667745;84;21796;-45
2021/03/05 04:50:04;;;;;;;18.50;10.93;;;;;;;4.17;63.05;100099.97;1664163;84;21181;-46
2021/03/05 04:52:31;;;;;;;17.73;10.68;;;;;;;4.09;63.20;100109.03;1676489;84;21998;-47
2021/03/05 04:54:59;;;;;;;19.42;10.98;;;;;;;4.05;63.40;100099.96;1679801;84;21637;-45
2021/03/05 04:57:27;;;;;;;19.12;11.53;;;;;;;4.03;63.60;100104.00;1668644;84;21181;-48
2021/03/05 04:59:55;;;;;;;18.62;11.75;;;;;;;4.01;63.76;100108.47;1676089;84;21205;-45
2021/03/05 05:02:22;;;;;;;26.00;13.00;;;;;;;3.97;63.89;100106.84;1652983;85;21194;-46
2021/03/05 05:04:52;;;;;;;22.40;12.47;;;;;;;3.92;64.05;100109.27;1667851;84;21162;-42
2021/03/05 05:07:19;;;;;;;21.00;11.03;;;;;;;3.86;64.30;100111.21;1665209;84;21177;-42
2021/03/05 05:09:48;;;;;;;18.12;11.57;;;;;;;3.78;64.65;100108.00;1699130;82;21618;-45
2021/03/05 05:12:16;;;;;;;19.52;11.57;;;;;;;3.71;65.00;100108.28;1700827;82;21118;-42
2021/03/05 05:14:43;;;;;;;18.35;10.93;;;;;;;3.68;65.35;100111.89;1709366;82;21111;-42
2021/03/05 05:17:11;;;;;;;19.67;13.00;;;;;;;3.66;65.79;100122.94;1701412;82;21169;-41
2021/03/05 05:19:39;;;;;;;22.42;15.38;;;;;;;3.59;67.80;100130.20;1703086;82;21462;-42
2021/03/05 05:22:06;;;;;;;18.77;11.85;;;;;;;3.42;68.60;100127.29;1703067;82;21125;-45
2021/03/05 05:24:34;;;;;;;23.10;12.90;;;;;;;3.34;69.21;100130.19;1701862;82;21142;-44
2021/03/05 05:27:02;;;;;;;23.80;13.28;;;;;;;3.32;69.75;100132.47;1703066;82;21150;-45
2021/03/05 05:29:30;;;;;;;21.73;13.18;;;;;;;3.27;70.00;100123.40;1704887;82;21570;-45
2021/03/05 05:31:58;;;;;;;21.65;12.63;;;;;;;3.29;70.25;100130.80;1706654;82;21170;-44
2021/03/05 05:34:26;;;;;;;20.17;13.25;;;;;;;3.34;70.48;100128.02;1704304;82;21296;-45
2021/03/05 05:36:54;;;;;;;24.32;14.83;;;;;;;3.36;70.60;100126.20;1698587;82;21134;-42
2021/03/05 05:39:23;;;;;;;24.35;14.78;;;;;;;3.35;71.01;100136.31;1700451;82;21600;-44
2021/03/05 05:41:51;;;;;;;25.65;14.25;;;;;;;3.29;71.40;100139.17;1704131;82;21185;-42
2021/03/05 05:44:19;;;;;;;21.82;12.70;;;;;;;3.26;71.74;100141.45;1680255;82;21554;-42
2021/03/05 05:46:46;;;;;;;26.82;14.53;;;;;;;3.26;72.09;100142.77;1695971;82;21138;-41
2021/03/05 05:49:15;;;;;;;25.92;14.87;;;;;;;3.29;72.40;100136.53;1710338;82;21158;-46
2021/03/05 05:51:43;;;;;;;21.55;13.25;;;;;;;3.30;72.65;100140.88;1707493;82;21184;-41
2021/03/05 05:54:12;;;;;;;25.25;14.83;;;;;;;3.30;72.85;100145.72;1702163;82;21562;-42
2021/03/05 05:56:40;;;;;;;25.77;14.35;;;;;;;3.33;73.00;100150.88;1686198;84;21114;-42
2021/03/05 05:59:09;;;;;;;22.93;12.82;;;;;;;3.36;73.20;100152.09;1706467;82;21630;-40
2021/03/05 06:01:37;;;;;;;25.27;14.35;;;;;;;3.39;73.34;100156.39;1703540;82;21178;-40
2021/03/05 06:04:05;;;;;;;23.18;13.80;;;;;;;3.39;73.52;100157.25;1709502;82;21185;-40
2021/03/05 06:06:32;;;;;;;20.70;13.03;;;;;;;3.41;73.57;100165.98;1714920;82;21149;-42
2021/03/05 06:09:03;;;;;;;24.12;14.65;;;;;;;3.41;73.68;100165.98;1718900;82;21138;-43
2021/03/05 06:11:38;;;;;;;23.62;13.95;;;;;;;3.41;73.75;100170.39;1711341;82;21174;-42
2021/03/05 06:14:11;;;;;;;21.68;13.15;;;;;;;3.41;73.83;100173.03;1716728;82;21794;-45
2021/03/05 06:16:57;;;;;;;22.50;13.55;;;;;;;3.48;73.92;100177.19;1720416;82;21169;-42
2021/03/05 06:19:28;;;;;;;24.07;14.53;;;;;;;3.57;73.93;100181.27;1715490;82;21165;-41
2021/03/05 06:21:56;;;;;;;20.70;12.43;;;;;;;3.58;73.85;100185.62;1715029;82;21469;-42
2021/03/05 06:24:24;;;;;;;21.33;13.20;;;;;;;3.58;73.91;100185.62;1716472;82;21170;-42
2021/03/05 06:26:58;;;;;;;23.38;13.18;;;;;;;3.57;73.83;100190.50;1721357;82;21177;-44
2021/03/05 06:29:41;;;;;;;20.97;12.10;;;;;;;3.57;73.70;100191.35;1717684;82;21146;-42
2021/03/05 06:32:15;;;;;;;19.17;11.88;;;;;;;3.60;73.46;100195.23;1714817;82;21585;-46
2021/03/05 06:34:54;;;;;;;20.97;12.47;;;;;;;3.59;73.36;100196.13;1717474;82;21165;-43
2021/03/05 06:37:24;;;;;;;18.60;11.75;;;;;;;3.59;73.18;100202.72;1711638;82;21894;-44
2021/03/05 06:40:05;;;;;;;19.90;11.97;;;;;;;3.62;73.01;100199.11;1717423;82;21120;-44
2021/03/05 06:42:56;;;;;;;19.10;11.60;;;;;;;3.62;72.84;100205.24;1718104;82;21170;-42
2021/03/05 06:45:36;;;;;;;20.60;12.60;;;;;;;3.59;72.72;100208.45;1714246;82;21171;-41
2021/03/05 06:48:06;;;;;;;22.42;11.53;;;;;;;3.56;72.75;100196.70;1720021;82;21158;-42
2021/03/05 06:50:38;;;;;;;18.42;11.75;;;;;;;3.62;72.83;100199.97;1715591;82;21141;-43
2021/03/05 06:53:23;;;;;;;20.23;11.35;;;;;;;3.65;72.86;100202.52;1716229;82;21166;-46
2021/03/05 06:55:51;;;;;;;22.48;11.25;;;;;;;3.71;72.85;100201.45;1718172;82;21157;-44
2021/03/05 06:58:21;;;;;;;20.10;12.00;;;;;;;3.74;72.83;100199.16;1718919;82;21145;-44
2021/03/05 07:00:48;;;;;;;21.87;12.98;;;;;;;3.75;72.83;100197.77;1714670;82;21117;-43
2021/03/05 07:03:23;;;;;;;19.25;12.23;;;;;;;3.75;72.76;100203.50;1668107;83;21287;-43
2021/03/05 07:05:53;;;;;;;18.92;11.88;;;;;;;3.77;72.77;100205.64;1691014;83;21328;-46
2021/03/05 07:08:39;;;;;;;20.77;10.60;;;;;;;3.81;72.75;100198.03;1701197;82;21146;-45
2021/03/05 07:11:08;;;;;;;19.92;11.05;;;;;;;3.88;72.61;100199.52;1699624;82;21146;-46
2021/03/05 07:13:50;;;;;;;18.77;11.25;;;;;;;3.98;72.38;100202.69;1703871;82;21154;-45
2021/03/05 07:16:18;;;;;;;20.60;10.32;;;;;;;4.04;72.01;100198.07;1703371;82;21288;-46
2021/03/05 07:18:46;;;;;;;17.67;10.72;;;;;;;4.07;71.55;100197.95;1703146;82;21597;-43
2021/03/05 07:21:20;;;;;;;19.17;12.40;;;;;;;4.06;71.48;100192.75;1701794;82;21170;-44
2021/03/05 07:23:48;;;;;;;20.80;10.82;;;;;;;4.06;71.40;100199.34;1703379;82;21129;-45
2021/03/05 07:26:16;;;;;;;17.23;11.25;;;;;;;4.08;71.05;100201.02;1703747;82;21170;-45
2021/03/05 07:28:46;;;;;;;17.95;10.88;;;;;;;4.07;70.69;100196.63;1631901;84;21189;-46
2021/03/05 07:31:16;;;;;;;19.73;11.93;;;;;;;4.04;70.62;100192.80;1666987;84;21150;-43
2021/03/05 07:33:50;;;;;;;39.25;21.73;;;;;;;4.07;70.56;100197.09;1663650;84;21168;-44
2021/03/05 07:36:18;;;;;;;33.48;23.10;;;;;;;4.08;70.21;100199.70;1665049;84;21173;-43
2021/03/05 07:38:51;;;;;;;23.98;15.18;;;;;;;4.09;69.82;100196.59;1664912;84;21174;-45
2021/03/05 07:41:20;;;;;;;18.02;11.22;;;;;;;4.09;69.59;100198.77;1666506;84;21174;-44
2021/03/05 07:43:50;;;;;;;18.35;10.50;;;;;;;4.08;69.08;100193.53;1667054;84;21686;-45
2021/03/05 07:46:17;;;;;;;17.25;10.50;;;;;;;4.01;68.89;100202.61;1633623;86;21174;-44
2021/03/05 07:48:47;;;;;;;17.40;10.80;;;;;;;3.94;68.88;100198.00;1667327;85;21170;-43
2021/03/05 07:51:15;;;;;;;16.35;9.33;;;;;;;3.88;68.65;100196.45;1663318;84;21170;-43
2021/03/05 07:53:54;;;;;;;16.42;9.40;;;;;;;3.85;68.75;100199.63;1662171;86;21185;-44
2021/03/05 07:56:45;;;;;;;18.92;10.20;;;;;;;3.80;68.88;100197.14;1700065;82;21149;-43
2021/03/05 07:59:33;;;;;;;;;;;;;;;3.79;69.23;100207.31;1704965;82;21142;-44
2021/03/05 08:02:05;;;;;;;15.68;9.75;;;;;;;3.81;69.35;100216.04;1702490;82;20479;-44
2021/03/05 08:05:05;;;;;;;18.12;11.50;;;;;;;3.82;69.23;100214.25;1697182;82;21634;-43
2021/03/05 08:07:33;;;;;;;16.17;9.45;;;;;;;3.83;69.27;100212.01;1700589;82;21114;-42
2021/03/05 08:10:01;;;;;;;20.68;10.95;;;;;;;3.87;69.19;100209.21;1703672;82;21123;-41
2021/03/05 08:12:42;;;;;;;17.55;10.35;;;;;;;3.90;69.24;100210.88;1704166;82;21161;-43
2021/03/05 08:15:13;;;;;;;19.23;10.43;;;;;;;3.97;69.11;100211.07;1708440;82;21790;-43
2021/03/05 08:17:46;;;;;;;16.60;9.00;;;;;;;4.03;68.79;100216.58;1714003;82;21145;-43
2021/03/05 08:20:23;;;;;;;14.63;9.43;;;;;;;4.04;68.48;100212.58;1714957;82;21145;-43
2021/03/05 08:23:05;;;;;;;19.60;10.55;;;;;;;4.11;68.26;100211.92;1715276;82;21561;-43
2021/03/05 08:25:34;;;;;;;15.78;9.68;;;;;;;4.21;67.91;100208.45;1713696;82;21169;-41
2021/03/05 08:28:04;;;;;;;18.45;10.65;;;;;;;4.26;67.48;100211.36;1718170;82;21189;-42
2021/03/05 08:30:42;;;;;;;15.98;9.93;;;;;;;4.30;66.91;100211.62;1715453;82;21131;-41
2021/03/05 08:33:29;;;;;;;14.00;8.93;;;;;;;4.32;66.67;100211.58;1713975;82;21834;-43
2021/03/05 08:35:57;;;;;;;15.08;9.65;;;;;;;4.36;66.50;100206.60;1713969;82;22157;-44
2021/03/05 08:38:36;;;;;;;15.72;8.88;;;;;;;4.41;65.97;100211.25;1714266;82;21141;-42
2021/03/05 08:41:07;;;;;;;15.07;8.80;;;;;;;4.45;65.59;100210.66;1711226;82;21147;-43
2021/03/05 08:43:36;;;;;;;16.60;8.60;;;;;;;4.47;65.22;100214.11;1713394;82;21122;-44
2021/03/05 08:46:08;;;;;;;17.52;9.40;;;;;;;4.45;65.07;100208.88;1714061;82;21161;-44
2021/03/05 08:48:42;;;;;;;12.25;8.23;;;;;;;4.45;65.12;100210.66;1715355;82;21122;-44
2021/03/05 08:51:13;;;;;;;16.05;8.78;;;;;;;4.49;64.89;100214.45;1681893;84;21169;-43
2021/03/05 08:53:53;;;;;;;15.75;9.40;;;;;;;4.57;64.96;100214.17;1718102;82;21133;-43
2021/03/05 08:56:25;;;;;;;16.65;10.13;;;;;;;4.62;64.23;100205.61;1717901;82;21139;-43
2021/03/05 08:59:05;;;;;;;14.78;10.05;;;;;;;4.57;64.01;100204.06;1712744;82;21160;-44
2021/03/05 09:01:37;;;;;;;17.60;8.95;;;;;;;4.51;64.01;100215.27;1713837;82;21101;-42
2021/03/05 09:04:19;;;;;;;18.50;8.68;;;;;;;4.51;64.13;100223.63;1718724;82;21130;-45
2021/03/05 09:06:57;;;;;;;17.10;10.03;;;;;;;4.51;64.05;100226.27;1717548;82;21145;-47
2021/03/05 09:09:30;;;;;;;14.55;9.45;;;;;;;4.57;63.96;100229.16;1712066;82;21164;-44
2021/03/05 09:12:14;;;;;;;13.75;9.08;;;;;;;4.60;64.11;100231.21;1712133;82;21142;-44
2021/03/05 09:14:43;;;;;;;15.63;8.03;;;;;;;4.67;64.06;100226.11;1723739;82;21153;-43
2021/03/05 09:17:12;;;;;;;16.30;10.23;;;;;;;4.77;63.83;100223.98;1717674;82;21170;-43
2021/03/05 09:19:44;;;;;;;16.23;10.80;;;;;;;4.84;63.69;100228.11;1709957;82;21153;-45
2021/03/05 09:22:17;;;;;;;15.78;8.63;;;;;;;4.91;63.58;100228.70;1712326;82;21185;-45
2021/03/05 09:27:42;;;;;;;14.38;9.20;;;;;;;5.10;62.82;100221.78;1797126;78;23629;-46
2021/03/05 09:30:22;;;;;;;19.73;10.60;;;;;;;5.10;62.60;100232.36;1773467;79;21128;-46
2021/03/05 09:32:51;;;;;;;15.15;9.00;;;;;;;5.14;62.31;100235.72;1737961;81;21149;-45
2021/03/05 09:35:29;;;;;;;17.60;9.68;;;;;;;5.15;62.37;100237.00;1718119;81;21283;-51
2021/03/05 09:37:57;;;;;;;19.27;9.10;;;;;;;5.19;62.39;100239.94;1718954;81;21145;-49
2021/03/05 09:40:27;;;;;;;18.40;10.68;;;;;;;5.23;62.34;100239.33;1733741;81;21158;-52
2021/03/05 09:42:58;;;;;;;18.20;10.50;;;;;;;5.30;62.25;100243.92;1723482;81;21562;-44
2021/03/05 09:45:39;;;;;;;20.68;10.43;;;;;;;5.37;61.90;100244.08;1707093;82;21169;-44
2021/03/05 09:48:31;;;;;;;18.05;11.12;;;;;;;5.37;61.42;100240.97;1722228;81;21165;-44
2021/03/05 09:51:24;;;;;;;23.20;11.33;;;;;;;5.40;61.27;100245.27;1709959;83;21180;-48
2021/03/05 09:53:57;;;;;;;24.27;11.95;;;;;;;5.46;61.22;100251.63;1712564;83;21149;-43
2021/03/05 09:56:27;;;;;;;22.05;12.10;;;;;;;5.51;61.05;100254.94;1710060;83;21597;-46
2021/03/05 09:58:58;;;;;;;25.80;16.20;;;;;;;5.57;60.94;100257.81;1712908;83;21150;-44
2021/03/05 10:01:28;;;;;;;19.92;11.60;;;;;;;5.61;60.89;100262.89;1709507;83;21636;-43
2021/03/05 10:03:58;;;;;;;;;;;;;;;5.65;60.52;100264.97;1716170;83;21145;-46
2021/03/05 10:06:27;;;;;;;20.00;12.28;;;;;;;5.67;60.40;100259.59;1710513;83;20490;-45
2021/03/05 10:09:19;;;;;;;24.82;12.78;;;;;;;5.59;60.03;100267.41;1728454;81;21565;-46
2021/03/05 10:11:44;;;;;;;19.02;11.28;;;;;;;5.45;59.97;100266.25;1736401;81;21189;-45
2021/03/05 10:14:26;;;;;;;20.65;11.03;;;;;;;5.39;60.13;100260.28;1735389;81;21287;-45
2021/03/05 10:16:53;;;;;;;;;;;;;;;5.35;59.47;100263.97;1739716;81;21173;-45
2021/03/05 10:19:23;;;;;;;23.18;11.33;;;;;;;5.27;59.66;100267.39;1689966;83;20158;-43
2021/03/05 10:21:52;;;;;;;23.10;10.50;;;;;;;5.25;59.59;100267.05;1683230;84;21165;-43
2021/03/05 10:24:27;;;;;;;20.72;11.50;;;;;;;5.20;59.65;100269.87;1698825;82;21165;-44
2021/03/05 10:29:49;;;;;;;17.62;10.45;;;;;;;5.32;59.69;100265.88;1686480;83;21529;-43
2021/03/05 10:32:33;;;;;;;18.00;9.75;;;;;;;5.41;59.62;100261.53;1737901;80;21308;-43
2021/03/05 10:35:11;;;;;;;17.90;9.78;;;;;;;5.43;58.95;100261.86;1736120;81;21122;-48
2021/03/05 10:37:39;;;;;;;20.20;9.88;;;;;;;5.48;59.25;100271.41;1737778;80;21630;-45
2021/03/05 10:40:09;;;;;;;21.45;10.55;;;;;;;5.56;58.91;100266.66;1735382;81;22125;-47
2021/03/05 10:42:36;;;;;;;15.10;8.93;;;;;;;5.63;58.65;100261.05;1733910;81;21166;-47
2021/03/05 10:45:05;;;;;;;17.75;9.83;;;;;;;5.66;58.08;100252.59;1738081;81;21178;-46
2021/03/05 10:47:35;;;;;;;16.97;9.55;;;;;;;5.64;58.19;100251.31;1734840;80;21166;-42
2021/03/05 10:50:05;;;;;;;18.95;10.08;;;;;;;5.67;58.02;100253.86;1735524;80;21173;-44
2021/03/05 10:52:33;;;;;;;18.37;10.13;;;;;;;5.66;57.60;100255.23;1738974;81;21149;-41
2021/03/05 10:55:00;;;;;;;18.80;9.20;;;;;;;5.59;57.49;100254.62;1730718;80;21494;-43
2021/03/05 10:57:28;;;;;;;18.75;10.50;;;;;;;5.51;57.32;100256.26;1736804;80;21154;-43
2021/03/05 10:59:56;;;;;;;16.90;9.25;;;;;;;5.42;57.40;100256.66;1741309;81;21143;-45
2021/03/05 11:02:24;;;;;;;15.72;9.70;;;;;;;5.40;57.40;100261.14;1731944;81;21448;-45
2021/03/05 11:04:52;;;;;;;20.80;9.20;;;;;;;5.35;57.14;100260.47;1731176;81;21641;-42
2021/03/05 11:07:19;;;;;;;15.63;8.48;;;;;;;5.33;57.41;100262.30;1695349;83;21174;-41
2021/03/05 11:09:47;;;;;;;17.75;9.88;;;;;;;5.34;57.30;100266.22;1738433;81;21645;-43
2021/03/05 11:12:15;;;;;;;20.48;10.13;;;;;;;5.30;57.15;100270.37;1738133;81;21684;-44
2021/03/05 11:14:43;;;;;;;16.15;8.63;;;;;;;5.18;57.28;100275.67;1672355;84;21122;-42
2021/03/05 11:17:10;;;;;;;15.80;8.13;;;;;;;5.07;57.85;100274.78;1737527;81;21149;-41
2021/03/05 11:19:39;;;;;;;11.22;7.10;;;;;;;5.09;57.93;100279.98;1737905;81;21153;-42
2021/03/05 11:22:07;;;;;;;13.93;6.28;;;;;;;5.15;57.10;100284.58;1740966;81;21150;-44
2021/03/05 11:24:35;;;;;;;16.52;8.55;;;;;;;5.19;57.38;100281.34;1738309;81;21177;-45
2021/03/05 11:27:04;;;;;;;15.25;8.78;;;;;;;5.18;58.50;100279.64;1736276;81;21128;-45
2021/03/05 11:29:32;;;;;;;19.35;9.25;;;;;;;5.23;59.40;100284.75;1745212;81;21150;-43
2021/03/05 11:32:00;;;;;;;13.22;7.97;;;;;;;5.31;59.94;100290.12;1742833;80;21157;-43
2021/03/05 11:34:30;;;;;;;20.80;8.10;;;;;;;5.43;60.82;100290.10;1748968;81;21542;-43
2021/03/05 11:36:58;;;;;;;14.15;8.20;;;;;;;5.43;60.82;100290.10;1746531;81;21470;-44
2021/03/05 11:39:26;;;;;;;16.55;8.80;;;;;;;5.46;61.36;100291.77;1738926;80;21139;-43
2021/03/05 11:41:54;;;;;;;17.80;8.50;;;;;;;5.40;61.96;100295.52;1744927;80;21146;-45
2021/03/05 11:44:22;;;;;;;16.57;9.13;;;;;;;5.39;62.67;100299.95;1743211;81;21141;-42
2021/03/05 11:46:50;;;;;;;16.67;9.48;;;;;;;5.37;63.31;100303.11;1746806;81;21145;-47